Mekong — WDE6357 — position and weather

sailwx.info

Track history (hours):
 
Tides and Currents Weather Stations Pressure Air Temp Water Temp Dewpoint Dewpoint Depression Visibility Wind Speed Wind Dir Waves Ship Positions

Mekong

Owner: Rubys LLC, North Plainfield, NJ. More information available from US FCC via Universal Licensing System and Coast Guard Vessel Documentation Center.

Last reported at 2015-Apr-26 21:13 UTC. Time now 2015-Apr-28 02:05 UTC.
Position N 39°24' W 074°13'.

Length 26 m.

Type: Pollution control. MMSI: 367379210.

Date/timePositionNaut miles runAvg speedWind from/ knotsBaromVisibWave heightAir tempDewpointWater temp
2015-Apr-26 21:13N 39°24' W 074°13'6 8.9
2015-Apr-26 20:32N 39°29' W 074°08'9 8.9
2015-Apr-26 19:30N 39°35' W 073°59'9 8.9
2015-Apr-26 18:32N 39°42' W 073°52'73 8.1
2015-Apr-26 09:26N 40°33' W 072°43'7 7.8
2015-Apr-26 08:33N 40°38' W 072°37'8 7.7
2015-Apr-26 07:33N 40°44' W 072°30'7 7.3
2015-Apr-26 06:33N 40°49' W 072°24'7 7.0
2015-Apr-26 05:33N 40°53' W 072°16'6 6.3
2015-Apr-26 04:33N 40°56' W 072°09'6 6.3
2015-Apr-26 03:33N 40°59' W 072°01'6 6.5
2015-Apr-26 02:33N 41°02' W 071°54'6 6.1
2015-Apr-26 01:33N 41°04' W 071°47'4 3.7
2015-Apr-26 00:33N 41°06' W 071°42'7 7.1
2015-Apr-25 23:33N 40°60' W 071°38'3 3.2
2015-Apr-25 22:33N 40°57' W 071°37'5 4.8
2015-Apr-25 21:33N 40°54' W 071°42'4 3.9
2015-Apr-25 20:33N 40°52' W 071°47'2 1.6
2015-Apr-25 19:33N 40°51' W 071°48'4 4.3
2015-Apr-25 18:33N 40°47' W 071°49'2 2.3
2015-Apr-25 17:33N 40°49' W 071°48'1 0.9
2015-Apr-25 16:33N 40°49' W 071°49'3 3.1
2015-Apr-25 15:33N 40°49' W 071°53'5 3.8
2015-Apr-25 14:21N 40°50' W 071°47'5 6.9
2015-Apr-25 13:34N 40°49' W 071°40'1 0.9
2015-Apr-25 12:33N 40°49' W 071°41'3 3.4
2015-Apr-25 11:33N 40°49' W 071°45'3 3.1
2015-Apr-25 10:33N 40°50' W 071°50'5 5.2
2015-Apr-25 09:33N 40°54' W 071°46'4 3.9
2015-Apr-25 08:33N 40°58' W 071°45'  
Track history (hours):
 
Tides and Currents Weather Stations Pressure Air Temp Water Temp Dewpoint Dewpoint Depression Visibility Wind Speed Wind Dir Waves Ship Positions

Mekong

Owner: Rubys LLC, North Plainfield, NJ. More information available from US FCC via Universal Licensing System and Coast Guard Vessel Documentation Center.

Last reported at 2015-Apr-26 21:13 UTC. Time now 2015-Apr-28 02:05 UTC.
Position N 39°24' W 074°13'.

Length 26 m.

Type: Pollution control. MMSI: 367379210.

Date/timePositionNaut miles runAvg speedWind from/ knotsBaromVisibWave heightAir tempDewpointWater temp
2015-Apr-26 21:13N 39°24' W 074°13'6 8.9
2015-Apr-26 20:32N 39°29' W 074°08'9 8.9
2015-Apr-26 19:30N 39°35' W 073°59'9 8.9
2015-Apr-26 18:32N 39°42' W 073°52'73 8.1
2015-Apr-26 09:26N 40°33' W 072°43'7 7.8
2015-Apr-26 08:33N 40°38' W 072°37'8 7.7
2015-Apr-26 07:33N 40°44' W 072°30'7 7.3
2015-Apr-26 06:33N 40°49' W 072°24'7 7.0
2015-Apr-26 05:33N 40°53' W 072°16'6 6.3
2015-Apr-26 04:33N 40°56' W 072°09'6 6.3
2015-Apr-26 03:33N 40°59' W 072°01'6 6.5
2015-Apr-26 02:33N 41°02' W 071°54'6 6.1
2015-Apr-26 01:33N 41°04' W 071°47'4 3.7
2015-Apr-26 00:33N 41°06' W 071°42'7 7.1
2015-Apr-25 23:33N 40°60' W 071°38'3 3.2
2015-Apr-25 22:33N 40°57' W 071°37'5 4.8
2015-Apr-25 21:33N 40°54' W 071°42'4 3.9
2015-Apr-25 20:33N 40°52' W 071°47'2 1.6
2015-Apr-25 19:33N 40°51' W 071°48'4 4.3
2015-Apr-25 18:33N 40°47' W 071°49'2 2.3
2015-Apr-25 17:33N 40°49' W 071°48'1 0.9
2015-Apr-25 16:33N 40°49' W 071°49'3 3.1
2015-Apr-25 15:33N 40°49' W 071°53'5 3.8
2015-Apr-25 14:21N 40°50' W 071°47'5 6.9
2015-Apr-25 13:34N 40°49' W 071°40'1 0.9
2015-Apr-25 12:33N 40°49' W 071°41'3 3.4
2015-Apr-25 11:33N 40°49' W 071°45'3 3.1
2015-Apr-25 10:33N 40°50' W 071°50'5 5.2
2015-Apr-25 09:33N 40°54' W 071°46'4 3.9
2015-Apr-25 08:33N 40°58' W 071°45'  

Dump ship's entire track history